createdAt,value
2018-09-18T00:00:02.654Z,1006.15
2018-09-18T00:01:02.638Z,1006.11
2018-09-18T00:02:02.622Z,1006.16
2018-09-18T00:03:02.611Z,1006.16
2018-09-18T00:04:02.610Z,1006.13
2018-09-18T00:05:02.590Z,1006.12
2018-09-18T00:06:02.575Z,1006.1
2018-09-18T00:07:02.563Z,1006.12
2018-09-18T00:08:02.550Z,1006.11
2018-09-18T00:09:02.534Z,1006.11
2018-09-18T00:10:02.522Z,1006.11
2018-09-18T00:11:02.509Z,1006.11
2018-09-18T00:12:02.495Z,1006.05
2018-09-18T00:13:02.483Z,1006.08
2018-09-18T00:14:02.469Z,1006.06
2018-09-18T00:15:02.459Z,1006.09
2018-09-18T00:16:02.445Z,1006.06
2018-09-18T00:17:02.433Z,1006.05
2018-09-18T00:18:02.420Z,1006.02
2018-09-18T00:19:02.408Z,1006.02
2018-09-18T00:20:02.398Z,1006.01
2018-09-18T00:21:02.382Z,1006.03
2018-09-18T00:22:02.373Z,1005.94
2018-09-18T00:23:02.357Z,1005.98
2018-09-18T00:24:02.343Z,1006.01
2018-09-18T00:25:02.330Z,1006
2018-09-18T00:26:02.318Z,1006
2018-09-18T00:27:02.305Z,1005.97
2018-09-18T00:28:02.292Z,1005.97
2018-09-18T00:29:02.281Z,1005.97
2018-09-18T00:30:02.268Z,1005.96
2018-09-18T00:31:02.255Z,1005.91
2018-09-18T00:32:02.241Z,1005.94
2018-09-18T00:33:02.229Z,1005.86
2018-09-18T00:34:02.215Z,1005.93
2018-09-18T00:35:02.202Z,1005.91
2018-09-18T00:36:02.190Z,1005.89
2018-09-18T00:37:02.177Z,1005.88
2018-09-18T00:38:02.166Z,1005.9
2018-09-18T00:39:02.152Z,1005.86
2018-09-18T00:40:02.142Z,1005.86
2018-09-18T00:41:02.125Z,1005.88
2018-09-18T00:42:02.110Z,1005.86
2018-09-18T00:43:02.104Z,1005.88
2018-09-18T00:44:02.290Z,1005.86
2018-09-18T00:45:02.077Z,1005.83
2018-09-18T00:46:02.064Z,1005.83
2018-09-18T00:47:02.047Z,1005.84
2018-09-18T00:48:02.038Z,1005.84
2018-09-18T00:49:02.025Z,1005.8
2018-09-18T00:50:02.013Z,1005.78
2018-09-18T00:51:01.997Z,1005.75
2018-09-18T00:52:01.990Z,1005.79
2018-09-18T00:53:01.971Z,1005.78
2018-09-18T00:54:01.962Z,1005.75
2018-09-18T00:55:01.945Z,1005.75
2018-09-18T00:56:01.935Z,1005.77
2018-09-18T00:57:01.918Z,1005.76
2018-09-18T00:58:01.910Z,1005.73
2018-09-18T00:59:01.893Z,1005.7
2018-09-18T01:00:01.884Z,1005.74
2018-09-18T01:01:01.866Z,1005.74
2018-09-18T01:02:01.856Z,1005.72
2018-09-18T01:03:01.840Z,1005.69
2018-09-18T01:04:01.826Z,1005.64
2018-09-18T01:05:01.814Z,1005.63
2018-09-18T01:06:01.803Z,1005.66
2018-09-18T01:07:01.790Z,1005.65
2018-09-18T01:08:01.776Z,1005.6
2018-09-18T01:09:01.764Z,1005.62
2018-09-18T01:10:01.763Z,1005.63
2018-09-18T01:11:01.746Z,1005.62
2018-09-18T01:12:01.727Z,1005.65
2018-09-18T01:13:01.718Z,1005.59
2018-09-18T01:14:01.701Z,1005.6
2018-09-18T01:15:01.685Z,1005.6
2018-09-18T01:16:01.675Z,1005.57
2018-09-18T01:17:01.659Z,1005.58
2018-09-18T01:18:01.647Z,1005.57
2018-09-18T01:19:01.633Z,1005.57
2018-09-18T01:20:01.620Z,1005.56
2018-09-18T01:21:01.611Z,1005.53
2018-09-18T01:22:01.594Z,1005.55
2018-09-18T01:23:01.581Z,1005.53
2018-09-18T01:24:01.570Z,1005.51
2018-09-18T01:25:01.556Z,1005.53
2018-09-18T01:26:01.545Z,1005.52
2018-09-18T01:27:01.530Z,1005.55
2018-09-18T01:28:01.517Z,1005.52
2018-09-18T01:29:01.504Z,1005.5
2018-09-18T01:30:01.490Z,1005.5
2018-09-18T01:31:01.478Z,1005.49
2018-09-18T01:32:01.465Z,1005.49
2018-09-18T01:33:01.449Z,1005.46
2018-09-18T01:34:01.438Z,1005.45
2018-09-18T01:35:01.428Z,1005.45
2018-09-18T01:36:01.412Z,1005.5
2018-09-18T01:37:01.402Z,1005.45
2018-09-18T01:38:01.386Z,1005.46
2018-09-18T01:39:01.373Z,1005.47
2018-09-18T01:40:01.362Z,1005.45
2018-09-18T01:41:01.348Z,1005.48
2018-09-18T01:42:01.332Z,1005.42
2018-09-18T01:43:01.320Z,1005.44
2018-09-18T01:44:01.306Z,1005.46
2018-09-18T01:45:01.295Z,1005.43
2018-09-18T01:46:01.282Z,1005.42
2018-09-18T01:47:01.269Z,1005.44
2018-09-18T01:48:01.255Z,1005.41
2018-09-18T01:49:01.251Z,1005.43
2018-09-18T01:50:01.226Z,1005.37
2018-09-18T01:51:01.217Z,1005.38
2018-09-18T01:52:01.199Z,1005.42
2018-09-18T01:53:01.189Z,1005.35
2018-09-18T01:54:01.174Z,1005.41
2018-09-18T01:55:01.160Z,1005.37
2018-09-18T01:56:01.150Z,1005.36
2018-09-18T01:57:01.135Z,1005.36
2018-09-18T01:58:01.122Z,1005.35
2018-09-18T01:59:01.109Z,1005.34
2018-09-18T02:00:01.093Z,1005.31
2018-09-18T02:01:01.082Z,1005.32
2018-09-18T02:02:01.067Z,1005.3
2018-09-18T02:03:01.055Z,1005.3
2018-09-18T02:04:01.041Z,1005.29
2018-09-18T02:05:01.030Z,1005.32
2018-09-18T02:06:01.014Z,1005.32
2018-09-18T02:07:01.001Z,1005.32
2018-09-18T02:08:00.987Z,1005.31
2018-09-18T02:09:00.975Z,1005.3
2018-09-18T02:10:00.962Z,1005.3
2018-09-18T02:11:00.948Z,1005.29
2018-09-18T02:12:00.936Z,1005.28
2018-09-18T02:13:00.923Z,1005.32
2018-09-18T02:14:00.909Z,1005.29
2018-09-18T02:15:00.895Z,1005.32
2018-09-18T02:16:00.882Z,1005.3
2018-09-18T02:17:00.871Z,1005.29
2018-09-18T02:18:00.854Z,1005.29
2018-09-18T02:19:00.842Z,1005.28
2018-09-18T02:20:00.828Z,1005.27
2018-09-18T02:21:00.817Z,1005.28
2018-09-18T02:22:00.802Z,1005.27
2018-09-18T02:23:00.788Z,1005.26
2018-09-18T02:24:00.774Z,1005.28
2018-09-18T02:25:00.761Z,1005.25
2018-09-18T02:26:00.749Z,1005.23
2018-09-18T02:27:00.742Z,1005.22
2018-09-18T02:28:00.727Z,1005.22
2018-09-18T02:29:00.711Z,1005.21
2018-09-18T02:30:00.696Z,1005.22
2018-09-18T02:31:00.680Z,1005.17
2018-09-18T02:32:00.671Z,1005.18
2018-09-18T02:33:00.656Z,1005.17
2018-09-18T02:34:00.649Z,1005.19
2018-09-18T02:35:00.629Z,1005.14
2018-09-18T02:36:00.616Z,1005.13
2018-09-18T02:37:00.607Z,1005.12
2018-09-18T02:38:00.594Z,1005.15
2018-09-18T02:39:00.574Z,1005.1
2018-09-18T02:40:00.563Z,1005.12
2018-09-18T02:41:00.547Z,1005.1
2018-09-18T02:42:00.534Z,1005.08
2018-09-18T02:43:00.522Z,1005.11
2018-09-18T02:44:00.709Z,1005.08
2018-09-18T02:45:00.495Z,1005.05
2018-09-18T02:46:00.481Z,1005.05
2018-09-18T02:47:00.469Z,1005.06
2018-09-18T02:48:00.456Z,1005.03
2018-09-18T02:49:00.441Z,1005.02
2018-09-18T02:50:00.425Z,1005.02
2018-09-18T02:51:00.413Z,1004.98
2018-09-18T02:52:00.400Z,1005.01
2018-09-18T02:53:00.388Z,1005.01
2018-09-18T02:54:00.372Z,1005.01
2018-09-18T02:55:00.361Z,1005
2018-09-18T02:56:00.347Z,1004.98
2018-09-18T02:57:00.335Z,1004.97
2018-09-18T02:58:00.320Z,1004.98
2018-09-18T02:59:00.308Z,1004.94
2018-09-18T03:00:00.295Z,1004.93
2018-09-18T03:01:00.280Z,1004.94
2018-09-18T03:02:00.267Z,1004.92
2018-09-18T03:03:00.254Z,1004.96
2018-09-18T03:04:00.244Z,1004.94
2018-09-18T03:05:00.232Z,1004.9
2018-09-18T03:06:00.215Z,1004.93
2018-09-18T03:07:00.202Z,1004.89
2018-09-18T03:08:00.186Z,1004.94
2018-09-18T03:09:00.174Z,1004.92
2018-09-18T03:10:00.163Z,1004.92
2018-09-18T03:11:00.147Z,1004.9
2018-09-18T03:12:00.150Z,1004.9
2018-09-18T03:13:00.122Z,1004.91
2018-09-18T03:14:00.112Z,1004.93
2018-09-18T03:15:00.096Z,1004.91
2018-09-18T03:16:00.083Z,1004.91
2018-09-18T03:17:00.068Z,1004.89
2018-09-18T03:18:00.055Z,1004.88
2018-09-18T03:19:00.042Z,1004.87
2018-09-18T03:20:00.028Z,1004.85
2018-09-18T03:21:00.107Z,1004.85
2018-09-18T03:22:00.012Z,1004.87
2018-09-18T03:22:59.989Z,1004.85
2018-09-18T03:23:59.979Z,1004.82
2018-09-18T03:24:59.964Z,1004.85
2018-09-18T03:25:59.952Z,1004.82
2018-09-18T03:26:59.935Z,1004.8
2018-09-18T03:27:59.926Z,1004.84
2018-09-18T03:28:59.909Z,1004.78
2018-09-18T03:29:59.895Z,1004.77
2018-09-18T03:30:59.887Z,1004.73
2018-09-18T03:31:59.871Z,1004.73
2018-09-18T03:32:59.858Z,1004.76
2018-09-18T03:33:59.842Z,1004.71
2018-09-18T03:34:59.829Z,1004.71
2018-09-18T03:35:59.816Z,1004.7
2018-09-18T03:36:59.803Z,1004.68
2018-09-18T03:37:59.790Z,1004.7
2018-09-18T03:38:59.776Z,1004.68
2018-09-18T03:39:59.766Z,1004.67
2018-09-18T03:40:59.749Z,1004.69
2018-09-18T03:41:59.736Z,1004.69
2018-09-18T03:42:59.725Z,1004.67
2018-09-18T03:43:59.710Z,1004.65
2018-09-18T03:44:59.702Z,1004.63
2018-09-18T03:45:59.685Z,1004.63
2018-09-18T03:46:59.672Z,1004.64
2018-09-18T03:47:59.660Z,1004.61
2018-09-18T03:48:59.651Z,1004.6
2018-09-18T03:49:59.632Z,1004.58
2018-09-18T03:50:59.619Z,1004.58
2018-09-18T03:51:59.607Z,1004.55
2018-09-18T03:52:59.593Z,1004.57
2018-09-18T03:53:59.578Z,1004.59
2018-09-18T03:54:59.567Z,1004.6
2018-09-18T03:55:59.549Z,1004.59
2018-09-18T03:56:59.538Z,1004.6
2018-09-18T03:57:59.526Z,1004.57
2018-09-18T03:58:59.513Z,1004.58
2018-09-18T03:59:59.502Z,1004.58
2018-09-18T04:00:59.487Z,1004.57
2018-09-18T04:01:59.471Z,1004.61
2018-09-18T04:02:59.498Z,1004.6
2018-09-18T04:03:59.446Z,1004.56
2018-09-18T04:04:59.434Z,1004.53
2018-09-18T04:05:59.420Z,1004.58
2018-09-18T04:06:59.404Z,1004.56
2018-09-18T04:07:59.392Z,1004.52
2018-09-18T04:08:59.378Z,1004.53
2018-09-18T04:09:59.367Z,1004.54
2018-09-18T04:10:59.352Z,1004.51
2018-09-18T04:11:59.341Z,1004.49
2018-09-18T04:12:59.325Z,1004.51
2018-09-18T04:13:59.317Z,1004.46
2018-09-18T04:14:59.299Z,1004.49
2018-09-18T04:15:59.286Z,1004.45
2018-09-18T04:16:59.278Z,1004.45
2018-09-18T04:17:59.257Z,1004.48
2018-09-18T04:18:59.245Z,1004.45
2018-09-18T04:19:59.232Z,1004.47
2018-09-18T04:20:59.220Z,1004.43
2018-09-18T04:21:59.205Z,1004.4
2018-09-18T04:22:59.196Z,1004.42
2018-09-18T04:23:59.183Z,1004.39
2018-09-18T04:24:59.166Z,1004.44
2018-09-18T04:25:59.153Z,1004.4
2018-09-18T04:26:59.141Z,1004.4
2018-09-18T04:27:59.127Z,1004.38
2018-09-18T04:28:59.118Z,1004.37
2018-09-18T04:29:59.101Z,1004.39
2018-09-18T04:30:59.088Z,1004.4
2018-09-18T04:31:59.078Z,1004.39
2018-09-18T04:32:59.063Z,1004.35
2018-09-18T04:33:59.049Z,1004.37
2018-09-18T04:34:59.035Z,1004.35
2018-09-18T04:35:59.021Z,1004.35
2018-09-18T04:36:59.008Z,1004.35
2018-09-18T04:37:58.996Z,1004.32
2018-09-18T04:38:58.988Z,1004.34
2018-09-18T04:39:58.971Z,1004.31
2018-09-18T04:40:58.956Z,1004.27
2018-09-18T04:41:58.942Z,1004.29
2018-09-18T04:42:58.928Z,1004.31
2018-09-18T04:43:59.116Z,1004.26
2018-09-18T04:44:58.902Z,1004.27
2018-09-18T04:45:58.950Z,1004.22
2018-09-18T04:46:58.875Z,1004.24
2018-09-18T04:47:58.867Z,1004.2
2018-09-18T04:48:58.849Z,1004.2
2018-09-18T04:49:58.836Z,1004.22
2018-09-18T04:50:58.825Z,1004.26
2018-09-18T04:51:58.810Z,1004.21
2018-09-18T04:52:58.797Z,1004.23
2018-09-18T04:53:58.785Z,1004.22
2018-09-18T04:54:58.847Z,1004.19
2018-09-18T04:55:58.757Z,1004.18
2018-09-18T04:56:58.752Z,1004.18
2018-09-18T04:57:58.729Z,1004.2
2018-09-18T04:58:58.718Z,1004.2
2018-09-18T04:59:58.704Z,1004.2
2018-09-18T05:00:58.691Z,1004.17
2018-09-18T05:01:58.701Z,1004.18
2018-09-18T05:02:58.664Z,1004.14
2018-09-18T05:03:58.652Z,1004.14
2018-09-18T05:04:58.638Z,1004.13
2018-09-18T05:05:58.626Z,1004.14
2018-09-18T05:06:58.612Z,1004.12
2018-09-18T05:07:58.603Z,1004.1
2018-09-18T05:08:58.592Z,1004.12
2018-09-18T05:09:58.573Z,1004.09
2018-09-18T05:10:58.561Z,1004.09
2018-09-18T05:11:58.547Z,1004.13
2018-09-18T05:12:58.533Z,1004.15
2018-09-18T05:13:58.596Z,1004.13
2018-09-18T05:14:58.507Z,1004.14
2018-09-18T05:15:58.498Z,1004.12
2018-09-18T05:16:58.482Z,1004.13
2018-09-18T05:17:58.468Z,1004.14
2018-09-18T05:18:58.455Z,1004.12
2018-09-18T05:19:58.443Z,1004.11
2018-09-18T05:20:58.429Z,1004.1
2018-09-18T05:21:58.414Z,1004.13
2018-09-18T05:22:58.405Z,1004.15
2018-09-18T05:23:58.392Z,1004.1
2018-09-18T05:24:58.378Z,1004.14
2018-09-18T05:25:58.366Z,1004.12
2018-09-18T05:26:58.349Z,1004.09
2018-09-18T05:27:58.340Z,1004.09
2018-09-18T05:28:58.329Z,1004.11
2018-09-18T05:29:58.312Z,1004.1
2018-09-18T05:30:58.299Z,1004.09
2018-09-18T05:31:58.286Z,1004.08
2018-09-18T05:32:58.282Z,1004.1
2018-09-18T05:33:58.262Z,1004.08
2018-09-18T05:34:58.250Z,1004.07
2018-09-18T05:35:58.234Z,1004.03
2018-09-18T05:36:58.221Z,1004.06
2018-09-18T05:37:58.207Z,1004.04
2018-09-18T05:38:58.195Z,1004.04
2018-09-18T05:39:58.187Z,1004
2018-09-18T05:40:58.168Z,1003.97
2018-09-18T05:41:58.173Z,1004.03
2018-09-18T05:42:58.148Z,1004.05
2018-09-18T05:43:58.130Z,1004.04
2018-09-18T05:44:58.120Z,1004.05
2018-09-18T05:45:58.105Z,1004.1
2018-09-18T05:46:58.092Z,1004.06
2018-09-18T05:47:58.130Z,1004.05
2018-09-18T05:48:58.068Z,1004.04
2018-09-18T05:49:58.051Z,1004.06
2018-09-18T05:50:58.039Z,1004.04
2018-09-18T05:51:58.027Z,1004.06
2018-09-18T05:52:58.017Z,1004.07
2018-09-18T05:53:58.000Z,1004.05
2018-09-18T05:54:57.988Z,1004.07
2018-09-18T05:55:57.976Z,1004.09
2018-09-18T05:56:57.963Z,1004.05
2018-09-18T05:57:57.949Z,1004.08
2018-09-18T05:58:57.938Z,1004.06
2018-09-18T05:59:57.924Z,1004.07
2018-09-18T06:00:57.912Z,1004.07
2018-09-18T06:01:57.898Z,1004.06
2018-09-18T06:02:57.886Z,1004.03
2018-09-18T06:03:57.876Z,1004.04
2018-09-18T06:04:57.859Z,1004.03
2018-09-18T06:05:57.849Z,1003.99
2018-09-18T06:06:57.835Z,1004
2018-09-18T06:07:57.824Z,1004
2018-09-18T06:08:57.810Z,1003.99
2018-09-18T06:09:57.798Z,1003.96
2018-09-18T06:10:57.784Z,1003.98
2018-09-18T06:11:57.774Z,1003.99
2018-09-18T06:12:57.760Z,1003.99
2018-09-18T06:13:57.748Z,1004.02
2018-09-18T06:14:57.738Z,1004.04
2018-09-18T06:15:57.722Z,1004.03
2018-09-18T06:16:57.710Z,1004.03
2018-09-18T06:17:57.697Z,1004.03
2018-09-18T06:18:57.800Z,1004
2018-09-18T06:19:57.675Z,1003.98
2018-09-18T06:20:57.660Z,1004
2018-09-18T06:21:57.645Z,1004.01
2018-09-18T06:22:57.636Z,1003.97
2018-09-18T06:23:57.624Z,1004.01
2018-09-18T06:24:57.610Z,1003.97
2018-09-18T06:25:57.595Z,1003.99
2018-09-18T06:26:57.584Z,1003.99
2018-09-18T06:27:57.574Z,1003.99
2018-09-18T06:28:57.561Z,1003.97
2018-09-18T06:29:57.551Z,1004.04
2018-09-18T06:30:57.535Z,1004.02
2018-09-18T06:31:57.525Z,1004.03
2018-09-18T06:32:57.511Z,1004.01
2018-09-18T06:33:57.498Z,1004.04
2018-09-18T06:34:57.486Z,1004
2018-09-18T06:35:57.474Z,1004.01
2018-09-18T06:36:57.509Z,1004.04
2018-09-18T06:37:57.448Z,1004
2018-09-18T06:38:57.438Z,1004.05
2018-09-18T06:39:57.425Z,1004.02
2018-09-18T06:40:57.416Z,1004.03
2018-09-18T06:41:57.402Z,1004.05
2018-09-18T06:42:57.398Z,1004.02
2018-09-18T06:43:57.376Z,1004.06
2018-09-18T06:44:57.364Z,1004.03
2018-09-18T06:45:57.352Z,1004.04
2018-09-18T06:46:57.341Z,1004.05
2018-09-18T06:47:57.398Z,1004.02
2018-09-18T06:48:57.317Z,1004
2018-09-18T06:49:57.307Z,1004.02
2018-09-18T06:50:57.293Z,1004.03
2018-09-18T06:51:57.280Z,1004.02
2018-09-18T06:52:57.270Z,1004.03
2018-09-18T06:53:57.258Z,1004.03
2018-09-18T06:54:57.245Z,1004.04
2018-09-18T06:55:57.240Z,1004.06
2018-09-18T06:56:57.224Z,1004.08
2018-09-18T06:57:57.212Z,1004.08
2018-09-18T06:58:57.198Z,1004.08
2018-09-18T06:59:57.189Z,1004.07
2018-09-18T07:00:57.175Z,1004.08
2018-09-18T07:01:57.165Z,1004.08
2018-09-18T07:02:57.154Z,1004.07
2018-09-18T07:03:57.141Z,1004.07
2018-09-18T07:04:57.134Z,1004.08
2018-09-18T07:05:57.119Z,1004.07
2018-09-18T07:06:57.109Z,1004.07
2018-09-18T07:07:57.095Z,1004.07
2018-09-18T07:08:57.090Z,1004.11
2018-09-18T07:09:57.076Z,1004.07
2018-09-18T07:10:57.062Z,1004.08
2018-09-18T07:11:57.052Z,1004.04
2018-09-18T07:12:57.039Z,1004.08
2018-09-18T07:13:57.029Z,1004.03
2018-09-18T07:14:57.025Z,1004.01
2018-09-18T07:15:57.007Z,1004.06
2018-09-18T07:16:57.002Z,1004.08
2018-09-18T07:17:57.037Z,1004.07
2018-09-18T07:18:56.976Z,1004.11
2018-09-18T07:19:56.964Z,1004.07
2018-09-18T07:20:56.953Z,1004
2018-09-18T07:21:56.942Z,1004.05
2018-09-18T07:22:56.931Z,1004.06
2018-09-18T07:23:56.922Z,1004.05
2018-09-18T07:24:56.968Z,1004.07
2018-09-18T07:25:56.902Z,1004.06
2018-09-18T07:26:56.897Z,1004.07
2018-09-18T07:27:56.879Z,1004.01
2018-09-18T07:28:56.869Z,1003.99
2018-09-18T07:29:56.858Z,1004.01
2018-09-18T07:30:56.848Z,1004.01
2018-09-18T07:31:56.838Z,1004.09
2018-09-18T07:32:56.827Z,1004.07
2018-09-18T07:33:56.849Z,1004.05
2018-09-18T07:34:56.808Z,1004.07
2018-09-18T07:35:56.799Z,1004.07
2018-09-18T07:36:56.786Z,1004.1
2018-09-18T07:37:56.779Z,1004.07
2018-09-18T07:38:56.767Z,1004.08
2018-09-18T07:39:56.759Z,1004.09
2018-09-18T07:40:56.799Z,1004.06
2018-09-18T07:41:56.738Z,1004.09
2018-09-18T07:42:56.729Z,1004.11
2018-09-18T07:43:56.718Z,1004.11
2018-09-18T07:44:56.711Z,1004.13
2018-09-18T07:45:56.699Z,1004.1
2018-09-18T07:46:56.689Z,1004.09
2018-09-18T07:47:56.680Z,1004.09
2018-09-18T07:48:56.671Z,1004.11
2018-09-18T07:49:56.660Z,1004.13
2018-09-18T07:50:56.650Z,1004.06
2018-09-18T07:51:56.644Z,1004.03
2018-09-18T07:52:56.632Z,1004.04
2018-09-18T07:53:56.624Z,1004.04
2018-09-18T07:54:56.614Z,1004.04
2018-09-18T07:55:56.605Z,1004.04
2018-09-18T07:56:56.594Z,1004.03
2018-09-18T07:57:56.584Z,1004.01
2018-09-18T07:58:56.575Z,1004
2018-09-18T07:59:56.569Z,1004.02
2018-09-18T08:00:56.556Z,1004.01
2018-09-18T08:01:56.548Z,1004.05
2018-09-18T08:02:56.543Z,1004.03
2018-09-18T08:03:56.532Z,1004.06
2018-09-18T08:04:56.525Z,1004.05
2018-09-18T08:05:56.512Z,1004.06
2018-09-18T08:06:56.503Z,1004.06
2018-09-18T08:07:56.495Z,1004.05
2018-09-18T08:08:56.485Z,1004.04
2018-09-18T08:09:56.478Z,1004.07
2018-09-18T08:10:56.545Z,1004.01
2018-09-18T08:11:56.458Z,1004.06
2018-09-18T08:12:56.451Z,1004.04
2018-09-18T08:13:56.443Z,1004.05
2018-09-18T08:14:56.431Z,1004.05
2018-09-18T08:15:56.426Z,1004.05
2018-09-18T08:16:56.415Z,1004.07
2018-09-18T08:17:56.408Z,1004.02
2018-09-18T08:18:56.486Z,1003.97
2018-09-18T08:19:56.389Z,1003.92
2018-09-18T08:20:56.380Z,1003.94
2018-09-18T08:21:56.413Z,1003.87
2018-09-18T08:22:56.364Z,1003.9
2018-09-18T08:23:56.357Z,1003.91
2018-09-18T08:24:56.352Z,1003.86
2018-09-18T08:25:56.345Z,1003.89
2018-09-18T08:26:56.336Z,1003.89
2018-09-18T08:27:56.322Z,1003.9
2018-09-18T08:28:56.315Z,1003.91
2018-09-18T08:29:56.309Z,1003.9
2018-09-18T08:30:56.304Z,1003.91
2018-09-18T08:31:56.296Z,1003.92
2018-09-18T08:32:56.322Z,1003.89
2018-09-18T08:33:56.276Z,1003.86
2018-09-18T08:34:56.272Z,1003.9
2018-09-18T08:35:56.260Z,1003.93
2018-09-18T08:36:56.250Z,1003.93
2018-09-18T08:37:56.244Z,1003.92
2018-09-18T08:38:56.235Z,1003.92
2018-09-18T08:39:56.368Z,1003.93
2018-09-18T08:40:56.228Z,1003.9
2018-09-18T08:41:56.215Z,1003.94
2018-09-18T08:42:56.206Z,1003.9
2018-09-18T08:43:56.227Z,1003.89
2018-09-18T08:44:56.223Z,1003.87
2018-09-18T08:45:56.184Z,1003.88
2018-09-18T08:46:56.172Z,1003.88
2018-09-18T08:47:56.170Z,1003.85
2018-09-18T08:48:56.184Z,1003.88
2018-09-18T08:49:56.150Z,1003.89
2018-09-18T08:50:56.148Z,1003.87
2018-09-18T08:51:56.231Z,1003.88
2018-09-18T08:52:56.132Z,1003.88
2018-09-18T08:53:56.144Z,1003.86
2018-09-18T08:54:56.122Z,1003.85
2018-09-18T08:55:56.129Z,1003.85
2018-09-18T08:56:56.115Z,1003.82
2018-09-18T08:57:56.090Z,1003.83
2018-09-18T08:58:56.085Z,1003.82
2018-09-18T08:59:56.078Z,1003.77
2018-09-18T09:00:56.067Z,1003.78
2018-09-18T09:01:56.081Z,1003.72
2018-09-18T09:02:56.059Z,1003.74
2018-09-18T09:03:56.066Z,1003.76
2018-09-18T09:04:56.098Z,1003.78
2018-09-18T09:05:56.186Z,1003.78
2018-09-18T09:06:56.026Z,1003.75
2018-09-18T09:07:56.112Z,1003.8
2018-09-18T09:08:56.153Z,1003.8
2018-09-18T09:09:56.042Z,1003.78
2018-09-18T09:10:56.077Z,1003.83
2018-09-18T09:11:55.988Z,1003.78
2018-09-18T09:12:55.982Z,1003.8
2018-09-18T09:13:55.989Z,1003.8
2018-09-18T09:14:56.060Z,1003.79
2018-09-18T09:15:55.992Z,1003.84
2018-09-18T09:16:55.955Z,1003.81
2018-09-18T09:17:55.968Z,1003.82
2018-09-18T09:18:55.948Z,1003.86
2018-09-18T09:19:55.934Z,1003.81
2018-09-18T09:20:55.990Z,1003.81
2018-09-18T09:21:56.062Z,1003.83
2018-09-18T09:22:56.085Z,1003.83
2018-09-18T09:23:55.914Z,1003.85
2018-09-18T09:24:55.929Z,1003.88
2018-09-18T09:25:55.905Z,1003.9
2018-09-18T09:26:55.993Z,1003.88
2018-09-18T09:27:55.963Z,1003.87
2018-09-18T09:28:55.896Z,1003.85
2018-09-18T09:29:55.871Z,1003.87
2018-09-18T09:30:55.881Z,1003.88
2018-09-18T09:31:55.855Z,1003.89
2018-09-18T09:32:55.852Z,1003.88
2018-09-18T09:33:55.855Z,1003.91
2018-09-18T09:34:55.859Z,1003.92
2018-09-18T09:35:55.830Z,1003.86
2018-09-18T09:36:55.827Z,1003.87
2018-09-18T09:37:55.850Z,1003.86
2018-09-18T09:38:55.948Z,1003.89
2018-09-18T09:39:55.807Z,1003.87
2018-09-18T09:40:55.798Z,1003.85
2018-09-18T09:41:55.790Z,1003.91
2018-09-18T09:42:55.787Z,1003.91
2018-09-18T09:43:55.853Z,1003.96
2018-09-18T09:44:55.803Z,1003.99
2018-09-18T09:45:55.768Z,1003.98
2018-09-18T09:46:55.761Z,1003.91
2018-09-18T09:47:55.753Z,1003.91
2018-09-18T09:48:55.748Z,1003.94
2018-09-18T09:49:55.741Z,1003.87
2018-09-18T09:50:55.736Z,1003.84
2018-09-18T09:51:55.730Z,1003.84
2018-09-18T09:52:55.726Z,1003.84
2018-09-18T09:53:55.722Z,1003.87
2018-09-18T09:54:55.719Z,1003.82
2018-09-18T09:55:55.705Z,1003.89
2018-09-18T09:56:55.806Z,1003.78
2018-09-18T09:57:55.691Z,1003.85
2018-09-18T09:58:55.692Z,1003.82
2018-09-18T09:59:55.681Z,1003.78
2018-09-18T10:00:55.674Z,1003.8
2018-09-18T10:01:55.667Z,1003.85
2018-09-18T10:02:55.708Z,1003.82
2018-09-18T10:03:55.658Z,1003.8
2018-09-18T10:04:55.650Z,1003.8
2018-09-18T10:05:55.644Z,1003.75
2018-09-18T10:06:55.639Z,1003.81
2018-09-18T10:07:55.635Z,1003.76
2018-09-18T10:08:55.927Z,1003.76
2018-09-18T10:09:55.622Z,1003.72
2018-09-18T10:10:55.809Z,1003.76
2018-09-18T10:11:55.609Z,1003.74
2018-09-18T10:12:55.601Z,1003.74
2018-09-18T10:13:55.597Z,1003.75
2018-09-18T10:14:55.594Z,1003.76
2018-09-18T10:15:55.604Z,1003.69
2018-09-18T10:16:55.580Z,1003.7
2018-09-18T10:17:55.723Z,1003.65
2018-09-18T10:18:55.568Z,1003.66
2018-09-18T10:19:55.565Z,1003.72
2018-09-18T10:20:55.557Z,1003.76
2018-09-18T10:21:55.551Z,1003.74
2018-09-18T10:22:55.545Z,1003.74
2018-09-18T10:23:55.565Z,1003.68
2018-09-18T10:24:55.568Z,1003.71
2018-09-18T10:25:55.562Z,1003.69
2018-09-18T10:26:55.555Z,1003.71
2018-09-18T10:27:55.518Z,1003.7
2018-09-18T10:28:55.533Z,1003.72
2018-09-18T10:29:55.526Z,1003.79
2018-09-18T10:30:55.503Z,1003.75
2018-09-18T10:31:55.512Z,1003.72
2018-09-18T10:32:55.546Z,1003.73
2018-09-18T10:33:55.487Z,1003.75
2018-09-18T10:34:55.479Z,1003.73
2018-09-18T10:35:55.488Z,1003.7
2018-09-18T10:36:55.471Z,1003.74
2018-09-18T10:37:55.472Z,1003.76
2018-09-18T10:38:55.467Z,1003.79
2018-09-18T10:39:55.467Z,1003.74
2018-09-18T10:40:55.602Z,1003.74
2018-09-18T10:41:55.536Z,1003.73
2018-09-18T10:42:55.566Z,1003.71
2018-09-18T10:43:55.442Z,1003.74
2018-09-18T10:44:55.484Z,1003.75
2018-09-18T10:45:55.435Z,1003.73
2018-09-18T10:46:55.440Z,1003.64
2018-09-18T10:47:55.418Z,1003.61
2018-09-18T10:48:55.409Z,1003.77
2018-09-18T10:49:55.404Z,1003.8
2018-09-18T10:50:55.399Z,1003.88
2018-09-18T10:51:55.402Z,1003.8
2018-09-18T10:52:55.391Z,1003.79
2018-09-18T10:53:55.389Z,1003.82
2018-09-18T10:54:55.385Z,1003.84
2018-09-18T10:55:55.376Z,1003.85
2018-09-18T10:56:55.374Z,1003.84
2018-09-18T10:57:55.368Z,1003.84
2018-09-18T10:58:55.364Z,1003.85
2018-09-18T10:59:55.359Z,1003.82
2018-09-18T11:00:55.355Z,1003.83
2018-09-18T11:01:55.469Z,1003.77
2018-09-18T11:02:55.357Z,1003.85
2018-09-18T11:03:55.343Z,1003.85
2018-09-18T11:04:55.349Z,1003.8
2018-09-18T11:05:55.352Z,1003.81
2018-09-18T11:06:55.452Z,1003.79
2018-09-18T11:07:55.447Z,1003.83
2018-09-18T11:08:55.365Z,1003.81
2018-09-18T11:09:55.336Z,1003.96
2018-09-18T11:10:55.308Z,1003.89
2018-09-18T11:11:55.303Z,1003.86
2018-09-18T11:12:55.304Z,1003.9
2018-09-18T11:13:55.423Z,1003.87
2018-09-18T11:14:55.409Z,1003.87
2018-09-18T11:15:55.409Z,1003.82
2018-09-18T11:16:55.363Z,1003.81
2018-09-18T11:17:55.341Z,1003.81
2018-09-18T11:18:55.291Z,1003.81
2018-09-18T11:19:55.336Z,1003.87
2018-09-18T11:20:55.320Z,1003.84
2018-09-18T11:21:55.323Z,1003.82
2018-09-18T11:22:55.274Z,1003.83
2018-09-18T11:23:55.307Z,1003.84
2018-09-18T11:24:55.293Z,1003.77
2018-09-18T11:26:55.245Z,1003.86
2018-09-18T11:27:55.254Z,1003.85
2018-09-18T11:28:55.266Z,1003.83
2018-09-18T11:29:55.251Z,1003.85
2018-09-18T11:30:55.234Z,1003.81
2018-09-18T11:31:55.235Z,1003.83
2018-09-18T11:32:55.255Z,1003.84
2018-09-18T11:33:55.236Z,1003.9
2018-09-18T11:34:55.236Z,1003.91
2018-09-18T11:35:55.230Z,1003.88
2018-09-18T11:36:55.229Z,1003.84
2018-09-18T11:37:55.231Z,1003.85
2018-09-18T11:38:55.232Z,1003.76
2018-09-18T11:39:55.232Z,1003.77
2018-09-18T11:40:55.234Z,1003.77
2018-09-18T11:41:55.236Z,1003.76
2018-09-18T11:42:55.240Z,1003.76
2018-09-18T11:43:55.239Z,1003.77
2018-09-18T11:44:55.245Z,1003.77
2018-09-18T11:45:55.361Z,1003.79
2018-09-18T11:46:55.250Z,1003.7
2018-09-18T11:47:55.256Z,1003.78
2018-09-18T11:48:55.257Z,1003.74
2018-09-18T11:49:55.265Z,1003.68
2018-09-18T11:50:55.270Z,1003.69
2018-09-18T11:51:55.279Z,1003.71
2018-09-18T11:52:55.290Z,1003.72
2018-09-18T11:53:55.290Z,1003.87
2018-09-18T11:54:55.284Z,1003.75
2018-09-18T11:55:55.298Z,1003.73
2018-09-18T11:56:55.295Z,1003.66
2018-09-18T11:57:55.299Z,1003.6
2018-09-18T11:58:55.308Z,1003.73
2018-09-18T11:59:55.310Z,1003.68
2018-09-18T12:00:55.315Z,1003.74
2018-09-18T12:01:55.320Z,1003.8
2018-09-18T12:02:55.348Z,1003.71
2018-09-18T12:03:55.330Z,1003.74
2018-09-18T12:04:55.351Z,1003.74
2018-09-18T12:05:55.340Z,1003.71
2018-09-18T12:06:55.346Z,1003.71
2018-09-18T12:07:55.352Z,1003.63
2018-09-18T12:08:55.372Z,1003.69
2018-09-18T12:09:55.387Z,1003.65